Time;durP1;ratioP1;P1;durP2;ratioP2;P2;SDS_P1;SDS_P2;PMS_P1;PMS_P2;Temp;Humidity;BMP_temperature;BMP_pressure;BME280_temperature;BME280_humidity;BME280_pressure;Samples;Min_cycle;Max_cycle;Signal;HPM_P1;HPM_P2
2021/11/26 00:00:02;;;;;;;19.11;12.66;;;;;;;1.17;84.44;98565.63;2003739;81;20366;-76
2021/11/26 00:03:04;;;;;;;17.48;12.18;;;;;;;1.18;84.42;98574.16;2004307;81;20448;-77
2021/11/26 00:06:07;;;;;;;17.60;12.21;;;;;;;1.19;84.27;98561.38;2003419;81;20346;-76
2021/11/26 00:09:10;;;;;;;17.23;12.88;;;;;;;1.15;84.42;98556.19;2004825;81;20956;-76
2021/11/26 00:12:13;;;;;;;18.04;12.82;;;;;;;1.14;84.63;98554.47;2004551;81;20402;-77
2021/11/26 00:15:22;;;;;;;17.23;13.00;;;;;;;1.15;84.65;98545.97;2003941;78;21131;-76
2021/11/26 00:18:25;;;;;;;17.39;12.43;;;;;;;1.16;84.84;98540.03;2009780;80;20785;-76
2021/11/26 00:21:27;;;;;;;17.17;12.35;;;;;;;1.13;84.92;98538.28;2010192;80;20192;-77
2021/11/26 00:24:30;;;;;;;15.73;11.77;;;;;;;1.17;84.83;98544.31;2009925;80;20332;-77
2021/11/26 00:27:33;;;;;;;18.55;12.18;;;;;;;1.15;84.97;98535.75;2010495;80;20331;-76
2021/11/26 00:30:36;;;;;;;17.69;11.75;;;;;;;1.16;85.04;98540.03;2009379;78;24203;-76
2021/11/26 00:33:38;;;;;;;15.34;11.50;;;;;;;1.15;84.98;98521.28;2067553;70;20525;-76
2021/11/26 00:36:41;;;;;;;19.48;12.64;;;;;;;1.16;85.13;98523.00;2009597;80;20343;-77
2021/11/26 00:39:43;;;;;;;14.06;11.16;;;;;;;1.18;85.02;98523.88;2009587;80;20408;-76
2021/11/26 00:42:46;;;;;;;16.74;11.57;;;;;;;1.19;84.94;98517.06;2009439;80;20373;-76
2021/11/26 00:45:49;;;;;;;15.56;11.66;;;;;;;1.13;85.30;98511.84;2003434;79;22992;-76
2021/11/26 00:48:52;;;;;;;15.95;11.31;;;;;;;1.08;85.66;98514.34;2005173;81;20345;-77
2021/11/26 00:51:55;;;;;;;16.46;12.21;;;;;;;1.07;86.03;98512.56;2005195;81;20425;-77
2021/11/26 00:54:57;;;;;;;16.40;11.76;;;;;;;1.09;85.99;98518.59;2004669;81;20354;-77
2021/11/26 00:58:00;;;;;;;16.15;11.57;;;;;;;1.13;85.96;98520.38;2005352;81;20345;-77
2021/11/26 01:01:03;;;;;;;15.71;11.56;;;;;;;1.17;85.79;98519.59;1997531;79;22839;-76
2021/11/26 01:04:06;;;;;;;19.59;12.46;;;;;;;1.20;85.60;98517.09;2000031;81;20334;-77
2021/11/26 01:07:09;;;;;;;17.00;11.65;;;;;;;1.21;85.52;98515.41;1998962;81;20392;-77
2021/11/26 01:10:17;;;;;;;17.19;11.09;;;;;;;1.21;85.62;98506.03;1999533;81;20322;-77
2021/11/26 01:13:20;;;;;;;18.67;11.59;;;;;;;1.24;85.56;98507.78;1999817;81;20338;-77
2021/11/26 01:16:23;;;;;;;17.90;12.02;;;;;;;1.21;85.72;98513.69;1997890;78;20359;-77
2021/11/26 01:19:26;;;;;;;19.34;11.94;;;;;;;1.19;85.84;98497.47;2000287;81;20335;-77
2021/11/26 01:22:29;;;;;;;15.90;11.30;;;;;;;1.21;85.79;98492.38;1999204;81;20363;-77
2021/11/26 01:25:32;;;;;;;15.73;11.61;;;;;;;1.21;85.62;98483.03;1999037;81;20399;-76
2021/11/26 01:28:35;;;;;;;18.00;11.96;;;;;;;1.23;85.61;98474.50;1999806;81;20360;-77
2021/11/26 01:31:39;;;;;;;17.83;11.56;;;;;;;1.26;85.50;98477.13;1999893;78;21119;-77
2021/11/26 01:34:42;;;;;;;15.43;10.65;;;;;;;1.24;85.60;98489.03;2003051;81;20368;-77
2021/11/26 01:37:45;;;;;;;14.35;10.27;;;;;;;1.24;85.62;98477.09;2001993;81;20394;-77
2021/11/26 01:40:49;;;;;;;15.63;10.04;;;;;;;1.24;85.45;98471.97;2001393;81;20340;-77
2021/11/26 01:43:52;;;;;;;14.65;9.95;;;;;;;1.19;85.46;98469.34;2003473;81;20352;-77
2021/11/26 01:46:54;;;;;;;15.19;9.84;;;;;;;1.14;85.15;98459.88;2001372;79;24779;-76
2021/11/26 01:49:57;;;;;;;14.13;10.15;;;;;;;1.06;85.24;98456.31;2003399;81;21153;-77
2021/11/26 01:53:00;;;;;;;14.73;10.52;;;;;;;0.98;85.18;98456.19;2003329;81;20405;-77
2021/11/26 01:56:04;;;;;;;12.77;9.84;;;;;;;0.92;85.10;98445.00;2003606;81;20469;-77
2021/11/26 01:59:07;;;;;;;13.27;9.20;;;;;;;0.86;85.02;98443.19;2003906;81;20352;-77
2021/11/26 02:02:09;;;;;;;13.23;9.49;;;;;;;0.76;84.96;98433.63;2002073;78;23373;-76
2021/11/26 02:05:12;;;;;;;12.40;9.25;;;;;;;0.66;85.05;98434.28;2002838;81;20347;-77
2021/11/26 02:08:15;;;;;;;15.55;10.13;;;;;;;0.54;85.18;98428.13;2003037;81;20437;-77
2021/11/26 02:11:18;;;;;;;11.49;9.01;;;;;;;0.49;85.47;98419.50;2002405;81;20669;-76
2021/11/26 02:14:21;;;;;;;11.81;9.04;;;;;;;0.43;85.59;98416.81;2002890;81;20352;-76
2021/11/26 02:17:24;;;;;;;12.02;9.59;;;;;;;0.36;85.48;98411.56;2002758;78;23069;-77
2021/11/26 02:20:29;;;;;;;15.49;9.73;;;;;;;0.27;85.44;98415.66;2007194;80;20339;-77
2021/11/26 02:23:31;;;;;;;12.86;9.68;;;;;;;0.11;85.43;98410.19;2003189;81;20363;-77
2021/11/26 02:26:42;;;;;;;13.85;10.45;;;;;;;-0.02;85.48;98406.50;2004039;81;21166;-76
2021/11/26 02:29:53;;;;;;;17.13;10.03;;;;;;;-0.11;85.96;98407.19;2002930;81;20320;-76
2021/11/26 02:33:03;;;;;;;10.84;9.24;;;;;;;-0.14;86.21;98404.59;2001712;78;23725;-77
2021/11/26 02:36:05;;;;;;;13.06;9.57;;;;;;;-0.16;86.17;98402.84;2004697;81;20922;-76
2021/11/26 02:39:09;;;;;;;13.48;9.88;;;;;;;-0.28;86.07;98398.31;2003499;81;20197;-76
2021/11/26 02:42:23;;;;;;;14.74;9.73;;;;;;;-0.32;86.29;98396.53;2003190;81;20312;-76
2021/11/26 02:45:26;;;;;;;14.18;9.59;;;;;;;-0.38;86.35;98401.47;2002789;78;24009;-76
2021/11/26 02:48:29;;;;;;;12.13;9.64;;;;;;;-0.41;86.47;98398.84;2005052;80;20243;-76
2021/11/26 02:51:32;;;;;;;13.98;10.52;;;;;;;-0.48;86.47;98400.41;2004226;81;20308;-76
2021/11/26 02:54:35;;;;;;;12.29;9.88;;;;;;;-0.51;86.75;98389.28;2004696;81;20178;-77
2021/11/26 02:57:38;;;;;;;15.15;10.76;;;;;;;-0.57;86.74;98384.03;2004929;81;20212;-77
2021/11/26 03:00:45;;;;;;;14.09;10.01;;;;;;;-0.59;87.02;98368.69;2003013;78;28831;-77
2021/11/26 03:03:48;;;;;;;15.07;10.35;;;;;;;-0.58;87.14;98369.56;2005339;81;20341;-77
2021/11/26 03:07:06;;;;;;;16.38;10.79;;;;;;;-0.64;87.16;98360.97;2005208;81;20328;-76
2021/11/26 03:10:12;;;;;;;15.81;10.93;;;;;;;-0.67;87.35;98366.00;2005631;81;20307;-77
2021/11/26 03:13:15;;;;;;;16.59;10.86;;;;;;;-0.73;87.50;98364.97;2005935;81;20655;-76
2021/11/26 03:16:18;;;;;;;17.65;11.75;;;;;;;-0.74;87.87;98373.44;2003736;78;23231;-76
2021/11/26 03:19:21;;;;;;;17.07;11.29;;;;;;;-0.69;88.24;98371.88;2005490;81;21086;-76
2021/11/26 03:22:24;;;;;;;13.20;10.58;;;;;;;-0.62;88.35;98366.94;2005955;81;20201;-77
2021/11/26 03:25:26;;;;;;;17.26;11.55;;;;;;;-0.54;88.38;98358.59;2006672;81;20181;-77
2021/11/26 03:28:29;;;;;;;15.36;10.77;;;;;;;-0.48;88.39;98351.97;2005962;81;20323;-77
2021/11/26 03:31:32;;;;;;;14.01;10.26;;;;;;;-0.43;88.32;98352.06;2004578;79;21474;-77
2021/11/26 03:34:35;;;;;;;14.07;10.74;;;;;;;-0.40;88.29;98345.34;2006730;81;20182;-77
2021/11/26 03:37:38;;;;;;;14.13;10.72;;;;;;;-0.35;88.27;98340.34;2006449;81;20327;-77
2021/11/26 03:40:41;;;;;;;14.57;10.62;;;;;;;-0.33;88.12;98336.16;2006582;81;20180;-76
2021/11/26 03:43:43;;;;;;;14.33;11.19;;;;;;;-0.26;88.02;98322.69;2002602;81;20198;-77
2021/11/26 03:46:46;;;;;;;14.34;10.69;;;;;;;-0.20;88.20;98315.16;2004735;78;22761;-76
2021/11/26 03:49:49;;;;;;;15.14;10.78;;;;;;;-0.18;88.22;98320.28;2005700;81;20409;-77
2021/11/26 03:52:51;;;;;;;14.99;10.44;;;;;;;-0.15;88.15;98313.56;2006099;81;20162;-76
2021/11/26 03:55:54;;;;;;;13.34;10.06;;;;;;;-0.12;88.11;98305.97;2006604;81;20271;-77
2021/11/26 03:58:57;;;;;;;13.60;10.04;;;;;;;-0.11;88.18;98305.16;2006176;81;20767;-77
2021/11/26 04:01:59;;;;;;;11.15;8.76;;;;;;;-0.14;88.18;98297.44;2004690;78;22909;-77
2021/11/26 04:05:03;;;;;;;12.21;9.39;;;;;;;-0.15;88.44;98300.81;2006599;81;20446;-76
2021/11/26 04:08:06;;;;;;;11.13;8.24;;;;;;;-0.15;88.56;98290.63;2005045;81;20317;-77
2021/11/26 04:11:08;;;;;;;13.04;8.78;;;;;;;-0.08;88.49;98295.00;2005039;81;20967;-77
2021/11/26 04:14:11;;;;;;;11.71;8.91;;;;;;;-0.08;88.36;98295.00;2005297;81;20239;-77
2021/11/26 04:17:14;;;;;;;11.10;8.14;;;;;;;-0.07;88.43;98286.50;2003701;78;22797;-77
2021/11/26 04:20:19;;;;;;;11.27;8.27;;;;;;;-0.04;88.39;98278.91;2005269;81;20332;-77
2021/11/26 04:23:22;;;;;;;10.98;8.52;;;;;;;0.02;88.14;98285.84;2006066;81;20202;-77
2021/11/26 04:26:25;;;;;;;11.28;8.62;;;;;;;0.05;88.17;98285.03;2005108;81;20229;-77
2021/11/26 04:29:28;;;;;;;10.80;8.58;;;;;;;0.07;88.09;98291.91;2004830;81;20339;-77
2021/11/26 04:32:31;;;;;;;11.38;9.05;;;;;;;0.09;88.01;98279.16;2003311;78;25522;-77
2021/11/26 04:35:35;;;;;;;11.93;8.82;;;;;;;0.10;87.87;98274.09;2005184;81;20401;-77
2021/11/26 04:38:37;;;;;;;12.73;8.38;;;;;;;0.13;87.90;98266.47;2005418;81;20344;-77
2021/11/26 04:41:40;;;;;;;10.76;8.26;;;;;;;0.16;87.85;98258.00;2005854;81;20312;-77
2021/11/26 04:44:43;;;;;;;12.34;9.05;;;;;;;0.15;87.91;98267.38;2005655;81;20312;-77
2021/11/26 04:47:46;;;;;;;11.45;8.89;;;;;;;0.18;87.91;98253.78;2003689;80;22776;-77
2021/11/26 04:50:49;;;;;;;13.16;10.09;;;;;;;0.18;87.99;98258.91;2005585;81;20769;-76
2021/11/26 04:53:51;;;;;;;14.24;10.28;;;;;;;0.18;88.05;98244.47;2005365;81;20329;-76
2021/11/26 04:56:56;;;;;;;13.05;9.65;;;;;;;0.23;88.07;98244.56;2005041;81;20186;-77
2021/11/26 05:00:00;;;;;;;12.90;9.44;;;;;;;0.20;88.10;98239.41;2005169;81;21135;-76
2021/11/26 05:03:04;;;;;;;13.05;9.41;;;;;;;0.19;88.26;98238.53;2000100;78;20881;-76
2021/11/26 05:06:07;;;;;;;15.41;11.01;;;;;;;0.22;88.43;98235.19;1999978;81;20366;-76
2021/11/26 05:09:10;;;;;;;14.34;10.71;;;;;;;0.23;88.42;98234.34;2000284;81;20310;-76
2021/11/26 05:12:14;;;;;;;14.79;11.01;;;;;;;0.24;88.51;98231.81;2000003;81;20944;-77
2021/11/26 05:15:24;;;;;;;17.96;12.93;;;;;;;0.29;88.46;98234.44;1998699;78;27574;-77
2021/11/26 05:18:26;;;;;;;19.20;13.85;;;;;;;0.30;88.74;98236.16;1999445;81;20880;-77
2021/11/26 05:21:29;;;;;;;19.62;14.40;;;;;;;0.37;88.72;98232.91;1999925;81;20419;-77
2021/11/26 05:24:32;;;;;;;20.52;13.34;;;;;;;0.41;88.55;98228.69;1999071;81;20855;-77
2021/11/26 05:27:34;;;;;;;18.93;14.06;;;;;;;0.44;88.40;98227.03;2000425;81;20313;-76
2021/11/26 05:30:37;;;;;;;21.26;14.67;;;;;;;0.41;88.45;98226.13;1999977;79;22610;-76
2021/11/26 05:33:39;;;;;;;20.80;14.69;;;;;;;0.46;88.44;98219.41;2005073;81;20271;-76
2021/11/26 05:36:43;;;;;;;21.40;14.95;;;;;;;0.49;88.29;98211.78;2006286;81;20349;-76
2021/11/26 05:39:46;;;;;;;20.09;13.95;;;;;;;0.51;88.10;98213.53;2007046;81;20861;-76
2021/11/26 05:42:49;;;;;;;22.27;14.34;;;;;;;0.50;88.14;98213.50;2004860;81;20334;-76
2021/11/26 05:45:52;;;;;;;18.33;14.18;;;;;;;0.49;88.26;98205.00;2004036;78;22982;-76
2021/11/26 05:48:54;;;;;;;17.33;12.63;;;;;;;0.51;88.27;98194.78;2004942;81;20430;-76
2021/11/26 05:51:57;;;;;;;20.83;14.27;;;;;;;0.51;88.18;98192.25;2005171;81;20387;-77
2021/11/26 05:55:00;;;;;;;20.38;14.02;;;;;;;0.51;88.34;98189.69;2004404;81;20696;-77
2021/11/26 05:58:04;;;;;;;19.29;13.66;;;;;;;0.52;88.47;98182.06;2004338;81;20730;-76
2021/11/26 06:01:06;;;;;;;22.24;14.95;;;;;;;0.54;88.47;98180.41;2003569;78;22069;-77
2021/11/26 06:04:09;;;;;;;19.63;14.29;;;;;;;0.54;88.57;98172.75;2004013;81;20729;-77
2021/11/26 06:07:12;;;;;;;20.76;15.01;;;;;;;0.48;88.60;98179.44;2003464;81;20336;-77
2021/11/26 06:10:16;;;;;;;19.56;14.77;;;;;;;0.51;88.89;98174.38;2004591;81;20329;-77
2021/11/26 06:13:18;;;;;;;20.73;14.81;;;;;;;0.55;88.91;98165.94;2004645;81;20332;-77
2021/11/26 06:16:21;;;;;;;18.73;13.43;;;;;;;0.60;88.86;98170.28;2003613;78;25112;-77
2021/11/26 06:19:24;;;;;;;23.36;15.14;;;;;;;0.61;88.83;98163.47;2003220;81;20393;-77
2021/11/26 06:22:27;;;;;;;21.21;15.24;;;;;;;0.67;88.84;98167.81;2001414;81;20383;-77
2021/11/26 06:25:30;;;;;;;21.61;15.32;;;;;;;0.69;88.77;98166.13;2004792;81;20392;-77
2021/11/26 06:28:33;;;;;;;22.05;15.32;;;;;;;0.71;88.66;98149.13;2004970;81;20325;-77
2021/11/26 06:31:35;;;;;;;20.63;13.98;;;;;;;0.73;88.43;98145.78;2007339;78;27962;-77
2021/11/26 06:34:38;;;;;;;24.29;16.49;;;;;;;0.70;88.40;98142.28;2008152;81;20345;-77
2021/11/26 06:37:41;;;;;;;22.75;15.68;;;;;;;0.65;88.40;98138.81;2005899;81;20337;-77
2021/11/26 06:40:44;;;;;;;20.40;15.04;;;;;;;0.59;88.33;98137.06;2005341;81;20325;-77
2021/11/26 06:43:46;;;;;;;23.88;15.43;;;;;;;0.58;88.59;98133.66;2010843;81;20324;-78
2021/11/26 06:46:49;;;;;;;22.81;14.79;;;;;;;0.62;88.58;98126.88;2009945;78;23927;-77
2021/11/26 06:49:51;;;;;;;22.71;15.45;;;;;;;0.65;88.44;98113.28;2008957;81;20413;-77
2021/11/26 06:52:55;;;;;;;22.16;15.23;;;;;;;0.67;88.58;98116.72;2009724;81;20336;-77
2021/11/26 06:55:58;;;;;;;28.13;16.10;;;;;;;0.70;88.57;98114.19;2009540;81;20406;-78
2021/11/26 06:59:03;;;;;;;22.75;15.24;;;;;;;0.69;88.57;98115.91;2009051;81;20344;-77
2021/11/26 07:02:06;;;;;;;24.17;15.56;;;;;;;0.74;88.63;98116.84;2009031;78;26355;-78
2021/11/26 07:05:10;;;;;;;22.52;15.91;;;;;;;0.79;88.55;98117.75;2012451;81;20360;-77
2021/11/26 07:08:13;;;;;;;23.40;16.41;;;;;;;0.79;88.57;98104.13;2008938;81;20378;-78
2021/11/26 07:11:15;;;;;;;27.25;16.38;;;;;;;0.83;88.62;98104.19;2005529;81;20414;-79
2021/11/26 07:14:18;;;;;;;24.60;15.54;;;;;;;0.88;88.70;98099.97;2004114;81;20360;-77
2021/11/26 07:17:21;;;;;;;23.31;15.52;;;;;;;0.93;88.68;98094.94;2002383;78;30072;-77
2021/11/26 07:20:24;;;;;;;23.95;15.36;;;;;;;0.98;88.53;98092.44;2004814;81;20834;-76
2021/11/26 07:23:29;;;;;;;23.23;16.06;;;;;;;1.00;88.69;98083.94;2010093;81;20417;-76
2021/11/26 07:26:31;;;;;;;24.39;16.24;;;;;;;1.06;88.52;98075.50;2012032;81;20312;-77
2021/11/26 07:29:34;;;;;;;26.90;16.59;;;;;;;1.08;88.60;98084.91;2009461;81;21094;-76
2021/11/26 07:32:37;;;;;;;24.21;16.61;;;;;;;1.12;88.63;98078.13;2001981;78;24500;-76
2021/11/26 07:35:40;;;;;;;27.67;16.88;;;;;;;1.11;88.75;98069.63;2003833;81;20405;-77
2021/11/26 07:38:43;;;;;;;27.02;17.26;;;;;;;1.17;88.94;98071.38;2004562;81;20320;-76
2021/11/26 07:41:45;;;;;;;27.23;17.24;;;;;;;1.20;88.96;98068.84;2003037;81;20350;-76
2021/11/26 07:44:48;;;;;;;27.55;17.55;;;;;;;1.24;88.76;98065.47;2003489;81;20352;-77
2021/11/26 07:47:52;;;;;;;24.79;16.23;;;;;;;1.26;88.90;98063.81;2000906;78;22350;-77
2021/11/26 07:50:55;;;;;;;28.63;17.35;;;;;;;1.33;88.86;98059.63;2003497;81;20367;-77
2021/11/26 07:53:58;;;;;;;25.66;16.94;;;;;;;1.38;88.87;98051.16;2002810;81;20411;-76
2021/11/26 07:57:01;;;;;;;26.74;17.16;;;;;;;1.44;88.89;98041.00;2003801;81;20609;-75
2021/11/26 08:00:05;;;;;;;26.17;17.15;;;;;;;1.52;88.89;98049.59;2000795;81;20453;-77
2021/11/26 08:03:07;;;;;;;28.58;17.80;;;;;;;1.61;88.84;98045.38;2002090;78;26081;-77
2021/11/26 08:06:30;;;;;;;29.14;17.00;;;;;;;1.71;88.77;98039.53;2002901;81;20325;-76
2021/11/26 08:09:33;;;;;;;31.41;17.96;;;;;;;1.77;88.54;98040.41;2003444;81;21161;-75
2021/11/26 08:12:38;;;;;;;31.01;17.61;;;;;;;1.82;88.36;98037.94;2002889;81;20715;-76
2021/11/26 08:15:42;;;;;;;28.46;17.09;;;;;;;1.81;88.21;98031.94;2000738;78;26325;-76
2021/11/26 08:18:44;;;;;;;29.99;17.88;;;;;;;1.84;88.42;98033.66;2003047;81;20398;-76
2021/11/26 08:21:48;;;;;;;31.96;18.59;;;;;;;1.87;88.50;98030.28;2002814;81;20406;-76
2021/11/26 08:24:51;;;;;;;30.91;17.08;;;;;;;1.89;88.56;98029.44;2002916;81;20371;-76
2021/11/26 08:27:55;;;;;;;34.06;18.99;;;;;;;1.91;88.54;98029.44;2003039;81;20401;-76
2021/11/26 08:30:58;;;;;;;31.26;17.71;;;;;;;1.93;88.54;98028.59;2002386;78;25395;-76
2021/11/26 08:34:02;;;;;;;32.00;18.11;;;;;;;1.96;88.42;98027.78;2004328;81;20418;-76
2021/11/26 08:37:05;;;;;;;31.63;18.52;;;;;;;1.98;88.45;98023.56;2003879;81;20341;-77
2021/11/26 08:40:09;;;;;;;35.13;18.89;;;;;;;1.98;88.43;98021.00;2003901;81;20324;-76
2021/11/26 08:43:11;;;;;;;32.79;18.67;;;;;;;1.97;88.54;98007.31;2003767;80;20340;-76
2021/11/26 08:46:14;;;;;;;32.46;18.08;;;;;;;2.00;88.71;98007.34;2001675;78;22618;-76
2021/11/26 08:49:17;;;;;;;32.78;18.02;;;;;;;2.06;88.61;97996.28;2003280;81;21213;-76
2021/11/26 08:52:21;;;;;;;33.38;18.25;;;;;;;2.13;88.46;97995.47;2003341;81;20352;-76
2021/11/26 08:55:23;;;;;;;33.81;17.85;;;;;;;2.19;88.40;97981.88;2004403;81;20436;-76
2021/11/26 08:58:26;;;;;;;30.48;18.35;;;;;;;2.23;88.35;97986.16;2002132;81;20338;-76
2021/11/26 09:01:31;;;;;;;29.69;17.05;;;;;;;2.26;88.52;97987.03;2002409;78;21744;-76
2021/11/26 09:04:34;;;;;;;32.99;18.11;;;;;;;2.35;88.30;97981.13;2002364;81;20369;-77
2021/11/26 09:07:36;;;;;;;33.47;19.50;;;;;;;2.42;88.23;97972.59;2002695;80;21384;-76
2021/11/26 09:10:40;;;;;;;33.51;18.77;;;;;;;2.44;88.14;97965.78;2002604;81;20320;-76
2021/11/26 09:13:43;;;;;;;30.02;18.30;;;;;;;2.43;87.98;97967.47;2002649;81;20645;-76
2021/11/26 09:16:46;;;;;;;34.95;18.16;;;;;;;2.44;88.14;97958.09;2004184;78;24877;-77
2021/11/26 09:19:48;;;;;;;35.04;17.80;;;;;;;2.42;88.28;97959.78;2010265;81;20325;-77
2021/11/26 09:22:51;;;;;;;33.78;18.71;;;;;;;2.39;88.53;97950.41;2006118;80;20813;-76
2021/11/26 09:25:55;;;;;;;34.72;18.39;;;;;;;2.45;88.76;97951.25;2003326;81;20317;-76
2021/11/26 09:28:58;;;;;;;33.28;17.51;;;;;;;2.45;88.92;97943.56;2002296;81;20814;-76
2021/11/26 09:32:01;;;;;;;34.47;18.48;;;;;;;2.51;89.17;97941.03;2000646;78;25491;-77
2021/11/26 09:35:05;;;;;;;31.58;18.77;;;;;;;2.59;89.34;97939.38;2003081;81;20325;-77
2021/11/26 09:38:08;;;;;;;34.97;18.13;;;;;;;2.66;89.38;97934.25;2003132;81;20390;-78
2021/11/26 09:41:13;;;;;;;36.95;18.19;;;;;;;2.75;89.61;97933.44;2006853;81;20437;-77
2021/11/26 09:44:34;;;;;;;29.24;17.27;;;;;;;2.81;89.41;97920.63;2003154;81;20886;-76
2021/11/26 09:47:37;;;;;;;34.97;18.42;;;;;;;2.88;89.43;97918.97;2000138;78;37455;-76
2021/11/26 09:50:40;;;;;;;29.55;17.05;;;;;;;2.92;89.22;97908.72;2001737;81;21379;-76
2021/11/26 09:53:42;;;;;;;31.76;17.95;;;;;;;2.98;89.12;97901.03;2001102;81;20827;-76
2021/11/26 09:56:45;;;;;;;32.28;17.76;;;;;;;3.01;88.93;97892.47;2002518;81;20328;-76
2021/11/26 09:59:48;;;;;;;34.16;17.08;;;;;;;3.07;88.93;97887.38;2001686;81;20398;-76
2021/11/26 10:02:55;;;;;;;29.56;17.29;;;;;;;3.09;88.71;97880.53;2000133;78;24833;-76
2021/11/26 10:05:58;;;;;;;29.90;16.06;;;;;;;3.15;88.72;97880.53;2002600;81;21390;-76
2021/11/26 10:09:09;;;;;;;29.75;16.02;;;;;;;3.19;88.58;97873.69;2001898;81;20356;-76
2021/11/26 10:12:14;;;;;;;30.04;16.05;;;;;;;3.22;88.41;97866.84;2003040;81;20348;-76
2021/11/26 10:15:37;;;;;;;29.38;15.82;;;;;;;3.26;88.30;97860.88;2000979;81;20358;-76
2021/11/26 10:18:46;;;;;;;28.11;15.95;;;;;;;3.32;88.35;97850.63;2002121;81;20340;-76
2021/11/26 10:21:49;;;;;;;32.21;15.02;;;;;;;3.49;88.25;97852.31;2001854;81;20873;-75
2021/11/26 10:24:57;;;;;;;30.35;14.76;;;;;;;3.53;87.73;97851.44;2003461;81;20205;-76
2021/11/26 10:28:02;;;;;;;31.11;16.00;;;;;;;3.53;87.56;97849.72;2005135;80;20397;-76
2021/11/26 10:31:05;;;;;;;28.29;15.19;;;;;;;3.57;87.59;97845.44;2000253;79;24457;-76
2021/11/26 10:34:26;;;;;;;27.95;14.44;;;;;;;3.68;87.68;97845.44;2001826;81;20348;-76
2021/11/26 10:37:29;;;;;;;26.94;14.24;;;;;;;3.64;86.73;97840.31;1997862;81;20447;-76
2021/11/26 10:40:34;;;;;;;27.71;14.02;;;;;;;3.62;86.71;97831.78;2002111;81;20973;-76
2021/11/26 10:47:07;;;;;;;23.77;14.04;;;;;;;3.73;86.51;97818.03;1999804;81;22846;-77
2021/11/26 11:00:15;;;;;;;24.25;12.05;;;;;;;3.69;85.54;97788.97;2009292;81;20522;-76
2021/11/26 11:03:23;;;;;;;21.63;12.85;;;;;;;3.65;85.65;97787.28;2004596;81;20381;-77
2021/11/26 11:06:26;;;;;;;21.73;12.06;;;;;;;3.58;85.44;97775.31;2007017;81;20343;-77
2021/11/26 11:09:47;;;;;;;18.33;10.61;;;;;;;3.51;85.55;97776.19;2006389;81;20243;-77
2021/11/26 11:12:50;;;;;;;20.91;11.29;;;;;;;3.44;85.87;97770.22;2002872;81;20739;-77
2021/11/26 11:15:53;;;;;;;18.44;11.07;;;;;;;3.41;86.09;97759.09;2000164;78;47303;-77
2021/11/26 11:18:56;;;;;;;20.92;10.54;;;;;;;3.29;86.47;97757.44;2002382;81;20428;-77
2021/11/26 11:21:59;;;;;;;17.33;9.55;;;;;;;3.26;86.97;97753.16;2002768;81;20365;-77
2021/11/26 11:25:04;;;;;;;16.92;9.85;;;;;;;3.29;87.27;97742.03;2002343;81;20317;-76
2021/11/26 11:28:10;;;;;;;16.09;8.91;;;;;;;3.23;87.30;97742.91;2002452;81;20377;-77
2021/11/26 11:31:12;;;;;;;14.85;8.95;;;;;;;3.18;87.56;97734.34;2003953;78;85657;-76
2021/11/26 11:34:20;;;;;;;14.13;8.84;;;;;;;3.15;87.99;97731.81;2008756;81;20341;-77
2021/11/26 11:37:26;;;;;;;16.33;8.88;;;;;;;3.17;88.17;97724.09;2006808;80;20336;-76
2021/11/26 11:40:33;;;;;;;12.57;7.96;;;;;;;3.18;88.23;97716.41;2007183;81;20174;-76
2021/11/26 11:43:45;;;;;;;13.66;7.96;;;;;;;3.21;88.06;97718.09;2005827;81;20321;-76
2021/11/26 11:46:48;;;;;;;13.96;7.46;;;;;;;3.19;88.31;97712.13;2004378;81;20317;-76
2021/11/26 11:50:04;;;;;;;16.55;7.70;;;;;;;3.21;88.36;97708.69;2004064;81;20313;-77
2021/11/26 11:53:20;;;;;;;12.32;7.47;;;;;;;3.24;88.50;97710.44;2006240;81;20350;-77
2021/11/26 11:56:23;;;;;;;13.43;7.43;;;;;;;3.21;88.22;97707.84;2005080;81;20340;-77
2021/11/26 11:59:30;;;;;;;10.77;6.59;;;;;;;3.15;88.38;97702.75;2005245;81;20863;-76
2021/11/26 12:02:33;;;;;;;11.74;7.05;;;;;;;3.19;88.63;97696.75;2004243;78;24794;-77
2021/11/26 12:05:37;;;;;;;11.81;6.63;;;;;;;3.21;88.61;97692.47;2008003;81;21154;-76
2021/11/26 12:08:47;;;;;;;11.84;7.56;;;;;;;3.20;88.50;97683.91;2006691;81;20328;-77
2021/11/26 12:12:02;;;;;;;14.43;7.71;;;;;;;3.18;88.56;97677.09;2006174;81;20340;-76
2021/11/26 12:15:05;;;;;;;15.29;7.93;;;;;;;3.20;88.92;97663.41;2005771;81;20553;-76
2021/11/26 12:18:08;;;;;;;13.71;7.35;;;;;;;3.27;88.96;97662.53;2005153;78;30493;-76
2021/11/26 12:21:13;;;;;;;14.06;7.79;;;;;;;3.32;88.67;97659.94;2006422;81;21456;-76
2021/11/26 12:24:20;;;;;;;15.19;7.88;;;;;;;3.37;88.79;97645.38;2005440;80;20346;-76
2021/11/26 12:27:27;;;;;;;15.86;8.45;;;;;;;3.42;88.72;97638.53;2004736;81;20366;-76
2021/11/26 12:30:29;;;;;;;16.61;8.64;;;;;;;3.44;88.65;97636.81;1999075;78;30618;-77
2021/11/26 12:33:33;;;;;;;16.29;8.14;;;;;;;3.46;88.55;97634.25;2007029;81;20445;-76
2021/11/26 12:36:54;;;;;;;16.77;8.75;;;;;;;3.49;88.52;97626.53;2002786;81;20537;-77
2021/11/26 12:40:11;;;;;;;13.84;7.99;;;;;;;3.48;88.57;97620.56;2002978;81;20312;-77
2021/11/26 12:43:14;;;;;;;15.69;8.55;;;;;;;3.52;88.59;97611.97;2003934;80;20340;-77
2021/11/26 12:46:24;;;;;;;15.49;8.19;;;;;;;3.56;88.73;97608.53;2002552;79;24168;-77
2021/11/26 12:51:03;;;;;;;15.10;7.74;;;;;;;3.61;88.68;97600.81;2002818;81;20340;-80
2021/11/26 12:53:07;;;;;;;12.24;6.64;;;;;;;3.71;88.61;97596.47;2003226;81;21019;-75
2021/11/26 12:56:09;;;;;;;11.76;7.26;;;;;;;3.74;88.33;97587.03;2004778;81;20313;-76
2021/11/26 12:59:12;;;;;;;14.48;7.43;;;;;;;3.74;88.20;97573.34;2007743;81;20324;-76
2021/11/26 13:02:26;;;;;;;9.99;6.59;;;;;;;3.77;88.06;97578.44;2006684;78;24330;-75
2021/11/26 13:05:29;;;;;;;11.49;6.34;;;;;;;3.75;87.96;97569.91;2005007;81;20825;-75
2021/11/26 13:08:32;;;;;;;11.81;6.29;;;;;;;3.72;87.80;97563.09;2006769;81;20344;-75
2021/11/26 13:11:39;;;;;;;14.11;6.63;;;;;;;3.69;87.64;97552.00;2004783;81;20874;-75
2021/11/26 13:14:48;;;;;;;11.54;6.26;;;;;;;3.68;87.91;97540.88;2006260;81;20340;-75
2021/11/26 13:17:53;;;;;;;11.76;6.71;;;;;;;3.66;88.06;97542.59;2004009;78;21855;-75
2021/11/26 13:21:02;;;;;;;9.02;6.46;;;;;;;3.70;88.17;97526.31;2001874;81;21163;-75
2021/11/26 13:24:05;;;;;;;10.57;5.94;;;;;;;3.70;88.23;97515.19;2000398;81;20328;-75
2021/11/26 13:27:09;;;;;;;9.56;5.38;;;;;;;3.72;87.99;97514.31;1999524;81;20186;-75
2021/11/26 13:30:16;;;;;;;10.44;5.55;;;;;;;3.72;87.62;97500.63;1998540;81;21623;-75
2021/11/26 13:33:22;;;;;;;11.06;5.91;;;;;;;3.72;87.51;97500.63;1999144;78;21620;-75
2021/11/26 13:36:32;;;;;;;7.53;4.88;;;;;;;3.73;87.56;97498.06;1999227;81;20954;-75
2021/11/26 13:39:35;;;;;;;10.77;5.82;;;;;;;3.77;87.66;97483.47;1998875;81;20344;-75
2021/11/26 13:42:40;;;;;;;11.56;6.24;;;;;;;3.83;87.74;97468.91;1999716;81;20406;-75
2021/11/26 13:45:44;;;;;;;10.61;6.30;;;;;;;3.93;87.72;97470.50;1997622;78;24476;-75
2021/11/26 13:48:50;;;;;;;10.96;5.76;;;;;;;3.98;87.53;97462.78;1995731;81;21002;-75
2021/11/26 13:51:56;;;;;;;10.94;5.95;;;;;;;4.01;87.25;97464.47;1999533;81;20328;-75
2021/11/26 13:55:19;;;;;;;10.98;6.34;;;;;;;4.01;86.82;97461.91;1999691;81;20356;-74
2021/11/26 13:58:22;;;;;;;9.55;5.56;;;;;;;4.03;86.56;97462.72;1999448;81;20336;-75
2021/11/26 14:01:34;;;;;;;8.98;5.70;;;;;;;4.04;86.25;97455.00;1997080;78;22798;-75
2021/11/26 14:04:39;;;;;;;12.13;5.91;;;;;;;4.00;85.83;97453.34;1998958;81;20371;-75
2021/11/26 14:07:58;;;;;;;10.01;5.29;;;;;;;3.94;85.82;97454.22;1999660;81;20497;-76
2021/11/26 14:11:01;;;;;;;10.65;5.68;;;;;;;3.93;85.95;97442.25;1999230;81;20918;-72
2021/11/26 14:14:08;;;;;;;10.32;5.61;;;;;;;3.89;85.93;97437.19;1998801;81;20580;-72
2021/11/26 14:17:13;;;;;;;10.59;5.64;;;;;;;3.87;86.19;97429.50;1997093;78;21953;-73
2021/11/26 14:20:23;;;;;;;7.74;5.20;;;;;;;3.83;85.55;97429.53;1999487;81;20324;-72
2021/11/26 14:23:26;;;;;;;;;;;;;;;3.80;85.63;97412.47;2000431;81;20341;-73
2021/11/26 14:26:34;;;;;;;10.19;5.49;;;;;;;3.80;85.72;97412.47;2000219;81;20559;-72
2021/11/26 14:29:53;;;;;;;7.45;4.61;;;;;;;3.83;85.70;97406.44;1998700;81;20952;-72
2021/11/26 14:32:58;;;;;;;10.46;5.43;;;;;;;3.83;85.37;97414.16;1997035;78;21728;-72